Ride Results

Rockybar (Eidsvold) (09-05-2015)
Ride distance: 120.0 km Elevator

Outcomes - Rockybar (Eidsvold) (09-05-2015)
Division No. of Entries Retired / DNE Completed Withdrawn Ineligible V/O Percentage Completed
HW 9 7 0 - - 2 77.78%
MW 26 19 2 - - 5 80.77%
LW 20 13 2 - - 5 75.00%
JN 8 6 0 - - 2 75.00%
Totals 63 45 4 - - 14 77.78%
Results - Rockybar (Eidsvold) (09-05-2015)
No. Rider Horse Place Time Leg Speeds Total
Km/Hr
H/R bpm
Heavyweight
57 Matthias Lochthofen Bashan Tahpenes Retired/DNE L2 5:30:00 17.1, 12.6 14.55 41, 51, 52 (Avg:51)
51 Greg Garred Shannonwood Sub Retired/DNE L2 6:20:00 15.0, 10.8 12.63 31, 45, 57 (Avg:51)
52 Jaime Mansbridge Lea Ma Park La Gold Retired/DNE L2 6:20:00 15.0, 10.8 12.63 32, 49, 51 (Avg:50)
24 Steve Swan Longrun Turtle Dove Retired/DNE L2 6:32:00 13.4, 11.2 12.24 32, 38, 52 (Avg:45)
34 Emma Quilter Performance Park Indiana Retired/DNE L2 6:42:00 13.6, 10.6 11.94 45, 48, 50 (Avg:49)
7 Olaf Lochtenberg Matta Mia Dayimi Retired/DNE L2 7:07:00 12.9, 9.9 11.24 31, 41, 44 (Avg:42)
59 Gavin Bartlett Longrun Drifter Retired/DNE L2 7:37:00 11.7, 9.4 10.50 32, 46, 44 (Avg:45)
18 Vern Berry Bellarine Rosana Lame L2 0:00:00 13.4, 8.3 - 34, 42, 43 (Avg:42)
56 Anthony Wolgast Sweet Sensation Lame L2 0:00:00 12.8, 2.4 - 32, 45, 44 (Avg:44)
Middleweight
9 Alwyn Torenbeek Belyando 1 (BC) 10:20:00 14.1, 12.4, 9.8, 8.8 11.61 38, 44, 46, 48, 42 (Avg:45)
39 Jo Hamilton-Branigan Kholonial Boadecia 2 10:46:00 13.2, 11.5, 8.3, 10.5 11.15 32, 43, 50, 48, 44 (Avg:46)
42 Jamie Green Chelleason Rembrandt Retired/DNE L3 5:31:00 18.4, 18.0, 17.6 18.13 32, 49, 52, 52 (Avg:51)
53 Lisa Loranger Hideaway Farm Pacific-Power Retired/DNE L3 6:02:00 17.6, 15.9, 15.7 16.57 34, 47, 49, 59 (Avg:51)
25 Leslie Saunders-Webb Shah-Vale Shamal Retired/DNE L2 4:45:00 16.9, 16.7 16.84 35, 40, 49 (Avg:44)
54 Ken Moir Shian Retired/DNE L2 4:46:00 16.6, 16.9 16.78 32, 46, 49 (Avg:47)
26 Brook Sample Brookleigh Commander Retired/DNE L2 4:46:00 16.9, 16.6 16.78 39, 39, 42 (Avg:40)
11 Celeste Manwaring Jum Jum Silver Storm Retired/DNE L2 5:36:00 16.6, 12.4 14.29 33, 47, 50 (Avg:48)
5 Kerrie McAuliffe Ry-Naura Zanardi Retired/DNE L2 5:48:00 13.9, 13.6 13.79 36, 41, 47 (Avg:44)
28 Amanda Wilson Gheerulla Jagger Retired/DNE L2 6:00:00 13.7, 12.9 13.33 40, 51, 55 (Avg:53)
61 Bec Miller Splendacrest Quidam Retired/DNE L2 6:01:00 14.0, 12.6 13.30 38, 46, 43 (Avg:44)
60 Julia Zasada Shuja Belthesar Retired/DNE L2 6:01:00 14.0, 12.6 13.30 29, 43, 43 (Avg:43)
3 Alli Gerrard Picnic Park Smart Return Retired/DNE L2 6:02:00 13.9, 12.6 13.26 36, 50, 50 (Avg:50)
45 Matilda Hose Summer Park Harry Retired/DNE L2 6:05:00 13.7, 12.6 13.15 39, 49, 49 (Avg:49)
16 Dan Cook Limerick's Illusion Retired/DNE L2 6:07:00 13.7, 12.4 13.08 39, 42, 55 (Avg:48)
22 Ruth Dixon El Romero Retired/DNE L2 6:29:00 13.4, 11.3 12.34 31, 39, 45 (Avg:42)
10 Susie Reed Anvil Retired/DNE L2 6:51:00 14.1, 9.9 11.68 38, 47, 39 (Avg:43)
4 Leisa Watt Dejay Bey Wardija Retired/DNE L2 6:51:00 13.6, 10.2 11.68 33, 42, 44 (Avg:43)
8 Linda Lochtenberg Matta Mia Kassanova Retired/DNE L2 7:07:00 12.9, 9.9 11.24 40, 46, 48 (Avg:47)
55 Brenda Davy Bashan Kayla Retired/DNE L2 7:20:00 12.8, 9.4 10.91 30, 42, 51 (Avg:46)
19 Raewyn Carter Splitters Creek Watch the Tempo Retired/DNE L2 7:45:00 13.4, 8.3 10.32 32, 46, 50 (Avg:48)
47 Fiona Fenech Eus Anzac Lame L2 0:00:00 13.7, 12.6 - 35, 39, 45 (Avg:42)
58 Lynelle Greenwood Gheerulla Ambition Lame L2 0:00:00 11.7, 9.4 - 33, 44, 47 (Avg:45)
17 Kellie Hart Noname Lame L2 0:00:00 13.7, 12.4 - 35, 44, 50 (Avg:47)
15 Jackie Gilks Geisha Girl Lame L1 0:00:00 13.4 - 36, 47 (Avg:47)
12 Donna Pearce Windhaven Hussein Lame P/R 0:00:00 - - 29
Lightweight
13 Jocelyn Barnes Trinity 1 (BC) 8:43:00 15.2, 13.4, 13.7, 11.9 13.77 35, 45, 50, 47, 48 (Avg:47)
38 Carla Jones Kholonial Bartholomew 2 10:46:00 13.2, 11.5, 8.3, 10.5 11.15 38, 45, 56, 49, 53 (Avg:50)
41 Kelsey Irvine Larabi Rummanni Retired/DNE L3 5:31:00 18.4, 18.0, 17.6 18.13 29, 46, 50, 48 (Avg:48)
64 Sally Genninges Toad Retired/DNE L3 6:02:00 17.2, 16.4, 15.5 16.57 36, 45, 45, 46 (Avg:45)
20 Karen Winkel Xanadu Barabbous Retired/DNE L3 6:54:00 17.2, 13.7, 11.8 14.49 39, 49, 55, 49 (Avg:51)
49 Janelle Taylor Glenewan Scout Retired/DNE L2 4:58:00 17.7, 14.7 16.11 35, 43, 47 (Avg:45)
36 Renae Chapman Shanelli-Park Phoenix Retired/DNE L2 5:36:00 15.3, 13.3 14.29 39, 45, 47 (Avg:46)
35 Shelley Chapman Sahala Astronomer Retired/DNE L2 5:36:00 15.3, 13.3 14.29 32, 39, 40 (Avg:39)
2 Sascha Jones Splendacrest Zafire Retired/DNE L2 5:36:00 15.1, 13.4 14.29 29, 36, 44 (Avg:40)
29 Katherine Bannermann Gheerulla Quiana Retired/DNE L2 6:00:00 13.7, 12.9 13.33 40, 48, 49 (Avg:48)
30 Hedi Laigar Magic Glenn Torbreck Retired/DNE L2 6:00:00 13.7, 12.9 13.33 38, 41, 43 (Avg:42)
62 Jess Dakin Captain Jack Sparrow Retired/DNE L2 6:01:00 14.0, 12.6 13.30 36, 39, 39 (Avg:39)
63 Mindy Davies Porcelain Doll Retired/DNE L2 6:01:00 14.0, 12.6 13.30 32, 42, 42 (Avg:42)
14 Leigh Rich Leondon Maritz Retired/DNE L2 6:29:00 13.4, 11.3 12.34 36, 43, 44 (Avg:43)
1 Christal Rizk The Terminator Retired/DNE L2 7:45:00 12.8, 8.6 10.32 37, 48, 56 (Avg:52)
37 Pandora Bevan Lindall Kalliope Lame L4 0:00:00 18.8, 17.6, 17.6, 11.8 - 40, 46, 52, 49, 49 (Avg:49)
33 Sue Sutcliffe Ra-Anji Firefly Lame L3 0:00:00 17.0, 14.6, 13.9 - 30, 45, 42, 40 (Avg:42)
48 Ute Jordan Anijoa Delilah Lame L2 0:00:00 17.7, 14.7 - 32, 41, 54 (Avg:47)
6 Mary Sims Mt Eerwah Silver Duet Heart Rate L2 0:00:00 16.9, 14.7 - 31, 38, 64 (Avg:51)
46 Amaya Thomas Georgie Boy Lame L2 0:00:00 13.7, 12.6 - 35, 51, 47 (Avg:49)
Junior
21 Ronan McKay Ranek Boz Retired/DNE L3 6:54:00 17.2, 13.7, 11.8 14.49 40, 51, 52, 49 (Avg:50)
31 Gemma Sutcliffe Brookleigh Bailey Retired/DNE L2 4:46:00 16.9, 16.6 16.78 31, 43, 57 (Avg:50)
27 Ben Hoey Brookleigh Milo Retired/DNE L2 6:00:00 13.7, 12.9 13.33 38, 42, 54 (Avg:48)
32 Maeve Paten Gheerulla Sheriff Retired/DNE L2 6:00:00 13.7, 12.9 13.33 37, 47, 46 (Avg:46)
50 Finn Mansbridge Shannonwood Ezar Retired/DNE L2 6:20:00 15.0, 10.8 12.63 38, 47, 43 (Avg:45)
40 Louis Ryan Lindall Farouk Retired/DNE L2 6:42:00 13.2, 10.8 11.94 37, 44, 49 (Avg:46)
23 Chantelle Grayden Karabil Meriba Lame L2 0:00:00 13.4, 11.2 - 36, 39, 48 (Avg:43)
44 Emma Dimech Winderella Lodge Sphinx Lame L1 0:00:00 13.7 - 31, 39 (Avg:39)